createdAt,value
2023-04-20T00:02:03.224Z,9.85
2023-04-20T00:04:31.714Z,9.89
2023-04-20T00:06:59.987Z,9.91
2023-04-20T00:09:28.592Z,9.94
2023-04-20T00:11:56.635Z,9.97
2023-04-20T00:14:24.876Z,10.01
2023-04-20T00:16:52.912Z,10.04
2023-04-20T00:19:21.323Z,10.05
2023-04-20T00:21:50.061Z,10.07
2023-04-20T00:24:18.117Z,10.12
2023-04-20T00:26:46.179Z,10.17
2023-04-20T00:29:14.393Z,10.18
2023-04-20T00:31:42.845Z,10.17
2023-04-20T00:34:11.237Z,10.12
2023-04-20T00:36:39.400Z,10.10
2023-04-20T00:39:07.710Z,10.11
2023-04-20T00:41:36.121Z,10.14
2023-04-20T00:44:04.410Z,10.19
2023-04-20T00:46:34.070Z,10.23
2023-04-20T00:49:02.166Z,10.28
2023-04-20T00:51:31.953Z,10.31
2023-04-20T00:54:00.203Z,10.32
2023-04-20T00:56:28.627Z,10.34
2023-04-20T00:58:56.870Z,10.34
2023-04-20T01:01:25.068Z,10.35
2023-04-20T01:03:53.954Z,10.33
2023-04-20T01:06:22.389Z,10.27
2023-04-20T01:08:51.301Z,10.25
2023-04-20T01:11:19.773Z,10.24
2023-04-20T01:13:47.848Z,10.22
2023-04-20T01:16:16.338Z,10.15
2023-04-20T01:18:47.351Z,10.08
2023-04-20T01:21:17.490Z,10.03
2023-04-20T01:23:46.197Z,10.03
2023-04-20T01:26:15.913Z,10.03
2023-04-20T01:28:44.668Z,10.03
2023-04-20T01:31:12.846Z,10.03
2023-04-20T01:33:41.830Z,10.04
2023-04-20T01:36:10.305Z,10.06
2023-04-20T01:38:38.602Z,10.08
2023-04-20T01:41:07.898Z,10.03
2023-04-20T01:43:36.318Z,9.99
2023-04-20T01:46:05.535Z,9.99
2023-04-20T01:48:33.859Z,9.99
2023-04-20T01:51:02.086Z,9.98
2023-04-20T01:53:30.506Z,9.99
2023-04-20T01:55:59.425Z,9.99
2023-04-20T01:58:27.718Z,10.02
2023-04-20T02:00:56.173Z,10.03
2023-04-20T02:03:24.548Z,10.04
2023-04-20T02:05:53.415Z,10.03
2023-04-20T02:08:22.009Z,10.04
2023-04-20T02:10:50.173Z,10.06
2023-04-20T02:13:18.435Z,10.06
2023-04-20T02:15:46.637Z,10.06
2023-04-20T02:18:16.245Z,10.05
2023-04-20T02:20:44.786Z,10.01
2023-04-20T02:23:13.155Z,9.97
2023-04-20T02:25:41.356Z,9.96
2023-04-20T02:28:09.773Z,9.97
2023-04-20T02:30:40.163Z,9.97
2023-04-20T02:33:08.453Z,9.94
2023-04-20T02:35:37.543Z,9.88
2023-04-20T02:38:05.714Z,9.84
2023-04-20T02:40:33.983Z,9.82
2023-04-20T02:43:02.580Z,9.77
2023-04-20T02:45:32.875Z,9.72
2023-04-20T02:48:01.119Z,9.70
2023-04-20T02:50:31.828Z,9.68
2023-04-20T02:53:21.672Z,9.66
2023-04-20T02:55:59.453Z,9.64
2023-04-20T02:58:37.590Z,9.64
2023-04-20T03:01:35.903Z,9.65
2023-04-20T03:04:10.091Z,9.66
2023-04-20T03:06:42.970Z,9.65
2023-04-20T03:09:13.260Z,9.65
2023-04-20T03:12:06.263Z,9.65
2023-04-20T03:15:00.829Z,9.68
2023-04-20T03:17:47.742Z,9.70
2023-04-20T03:20:16.692Z,9.71
2023-04-20T03:22:45.000Z,9.70
2023-04-20T03:25:13.404Z,9.70
2023-04-20T03:27:51.094Z,9.64
2023-04-20T03:30:20.598Z,9.63
2023-04-20T03:32:52.702Z,9.63
2023-04-20T03:35:21.100Z,9.67
2023-04-20T03:37:49.527Z,9.68
2023-04-20T03:40:17.804Z,9.69
2023-04-20T03:42:46.231Z,9.70
2023-04-20T03:45:15.783Z,9.71
2023-04-20T03:47:43.968Z,9.72
2023-04-20T03:50:12.237Z,9.71
2023-04-20T03:52:41.150Z,9.71
2023-04-20T03:55:10.168Z,9.72
2023-04-20T03:57:40.373Z,9.73
2023-04-20T04:00:10.966Z,9.75
2023-04-20T04:02:47.978Z,9.76
2023-04-20T04:05:21.529Z,9.77
2023-04-20T04:08:02.816Z,9.80
2023-04-20T04:10:31.520Z,9.80
2023-04-20T04:12:59.744Z,9.81
2023-04-20T04:15:28.282Z,9.80
2023-04-20T04:18:02.843Z,9.76
2023-04-20T04:20:32.315Z,9.72
2023-04-20T04:23:00.740Z,9.71
2023-04-20T04:25:42.555Z,9.66
2023-04-20T04:28:12.801Z,9.61
2023-04-20T04:30:47.507Z,9.60
2023-04-20T04:33:19.007Z,9.59
2023-04-20T04:35:47.470Z,9.56
2023-04-20T04:38:16.351Z,9.51
2023-04-20T04:40:46.737Z,9.48
2023-04-20T04:43:21.300Z,9.46
2023-04-20T04:45:58.618Z,9.43
2023-04-20T04:48:28.030Z,9.44
2023-04-20T04:50:56.185Z,9.45
2023-04-20T04:53:24.421Z,9.50
2023-04-20T04:55:52.516Z,9.53
2023-04-20T04:58:20.994Z,9.50
2023-04-20T05:00:49.477Z,9.51
2023-04-20T05:03:17.903Z,9.54
2023-04-20T05:05:46.277Z,9.56
2023-04-20T05:08:14.507Z,9.55
2023-04-20T05:10:42.609Z,9.48
2023-04-20T05:13:11.061Z,9.46
2023-04-20T05:15:39.242Z,9.49
2023-04-20T05:18:07.394Z,9.52
2023-04-20T05:20:35.576Z,9.50
2023-04-20T05:23:04.497Z,9.47
2023-04-20T05:25:32.973Z,9.50
2023-04-20T05:28:01.131Z,9.54
2023-04-20T05:30:29.502Z,9.58
2023-04-20T05:32:57.808Z,9.60
2023-04-20T05:35:26.149Z,9.56
2023-04-20T05:37:54.522Z,9.54
2023-04-20T05:40:22.724Z,9.57
2023-04-20T05:42:50.993Z,9.60
2023-04-20T05:45:19.365Z,9.62
2023-04-20T05:47:56.762Z,9.62
2023-04-20T05:50:25.491Z,9.62
2023-04-20T05:52:54.220Z,9.62
2023-04-20T05:55:23.032Z,9.62
2023-04-20T05:57:52.367Z,9.61
2023-04-20T06:00:21.756Z,9.59
2023-04-20T06:02:51.408Z,9.55
2023-04-20T06:05:21.073Z,9.53
2023-04-20T06:07:49.420Z,9.55
2023-04-20T06:10:17.711Z,9.57
2023-04-20T06:12:45.866Z,9.58
2023-04-20T06:15:14.033Z,9.60
2023-04-20T06:17:42.935Z,9.60
2023-04-20T06:20:11.785Z,9.62
2023-04-20T06:22:44.594Z,9.63
2023-04-20T06:25:16.748Z,9.64
2023-04-20T06:27:45.454Z,9.64
2023-04-20T06:30:14.294Z,9.65
2023-04-20T06:32:42.457Z,9.69
2023-04-20T06:35:11.022Z,9.70
2023-04-20T06:37:40.405Z,9.69
2023-04-20T06:40:08.997Z,9.68
2023-04-20T06:42:37.907Z,9.68
2023-04-20T06:45:07.273Z,9.68
2023-04-20T06:47:35.605Z,9.69
2023-04-20T06:50:07.426Z,9.67
2023-04-20T06:52:37.979Z,9.68
2023-04-20T06:55:06.269Z,9.69
2023-04-20T06:57:34.706Z,9.70
2023-04-20T07:00:03.169Z,9.70
2023-04-20T07:02:41.568Z,9.73
2023-04-20T07:05:10.518Z,9.75
2023-04-20T07:07:39.599Z,9.79
2023-04-20T07:10:09.394Z,9.81
2023-04-20T07:12:38.825Z,9.81
2023-04-20T07:15:08.600Z,9.81
2023-04-20T07:17:37.630Z,9.80
2023-04-20T07:20:08.578Z,9.76
2023-04-20T07:22:38.149Z,9.75
2023-04-20T07:25:08.210Z,9.76
2023-04-20T07:27:40.531Z,9.77
2023-04-20T07:30:10.766Z,9.80
2023-04-20T07:32:40.931Z,9.79
2023-04-20T07:35:10.026Z,9.76
2023-04-20T07:37:38.989Z,9.74
2023-04-20T07:40:07.919Z,9.67
2023-04-20T07:42:37.492Z,9.64
2023-04-20T07:45:09.731Z,9.62
2023-04-20T07:47:38.103Z,9.61
2023-04-20T07:50:07.420Z,9.58
2023-04-20T07:52:35.934Z,9.59
2023-04-20T07:55:06.213Z,9.55
2023-04-20T07:57:34.973Z,9.51
2023-04-20T08:00:07.391Z,9.50
2023-04-20T08:02:41.900Z,9.54
2023-04-20T08:05:10.760Z,9.49
2023-04-20T08:07:40.887Z,9.46
2023-04-20T08:10:10.324Z,9.48
2023-04-20T08:12:39.992Z,9.50
2023-04-20T08:15:09.379Z,9.51
2023-04-20T08:17:38.315Z,9.52
2023-04-20T08:20:08.026Z,9.52
2023-04-20T08:22:38.363Z,9.52
2023-04-20T08:25:06.737Z,9.48
2023-04-20T08:27:35.196Z,9.44
2023-04-20T08:30:04.531Z,9.41
2023-04-20T08:32:33.433Z,9.42
2023-04-20T08:35:01.779Z,9.48
2023-04-20T08:37:32.503Z,9.53
2023-04-20T08:40:01.700Z,9.57
2023-04-20T08:42:30.080Z,9.61
2023-04-20T08:44:58.573Z,9.62
2023-04-20T08:47:28.005Z,9.62
2023-04-20T08:49:56.351Z,9.59
2023-04-20T08:52:24.626Z,9.55
2023-04-20T08:54:57.315Z,9.52
2023-04-20T08:57:26.642Z,9.52
2023-04-20T08:59:55.111Z,9.53
2023-04-20T09:02:23.284Z,9.52
2023-04-20T09:05:01.491Z,9.51
2023-04-20T09:07:30.036Z,9.49
2023-04-20T09:09:59.260Z,9.51
2023-04-20T09:12:28.172Z,9.51
2023-04-20T09:14:56.818Z,9.53
2023-04-20T09:17:36.319Z,9.54
2023-04-20T09:20:05.398Z,9.56
2023-04-20T09:22:37.792Z,9.56
2023-04-20T09:25:16.132Z,9.56
2023-04-20T09:27:58.227Z,9.56
2023-04-20T09:30:43.401Z,9.51
2023-04-20T09:33:12.689Z,9.48
2023-04-20T09:35:44.564Z,9.47
2023-04-20T09:38:15.968Z,9.48
2023-04-20T09:40:44.292Z,9.51
2023-04-20T09:43:19.527Z,9.50
2023-04-20T09:45:47.788Z,9.50
2023-04-20T09:48:19.282Z,9.49
2023-04-20T09:50:50.566Z,9.51
2023-04-20T09:53:20.258Z,9.56
2023-04-20T09:55:49.903Z,9.60
2023-04-20T09:58:19.953Z,9.59
2023-04-20T10:00:48.312Z,9.58
2023-04-20T10:03:18.448Z,9.60
2023-04-20T10:05:47.227Z,9.66
2023-04-20T10:08:15.505Z,9.66
2023-04-20T10:10:48.481Z,9.64
2023-04-20T10:13:22.013Z,9.64
2023-04-20T10:15:50.266Z,9.62
2023-04-20T10:18:26.603Z,9.60
2023-04-20T10:21:06.403Z,9.62
2023-04-20T10:23:34.942Z,9.62
2023-04-20T10:26:04.092Z,9.63
2023-04-20T10:28:40.561Z,9.61
2023-04-20T10:31:08.990Z,9.63
2023-04-20T10:33:37.450Z,9.67
2023-04-20T10:36:05.863Z,9.71
2023-04-20T10:38:35.256Z,9.75
2023-04-20T10:41:09.870Z,9.79
2023-04-20T10:43:42.366Z,9.81
2023-04-20T10:46:28.634Z,9.80
2023-04-20T10:48:58.788Z,9.82
2023-04-20T10:51:27.003Z,9.84
2023-04-20T10:54:18.322Z,9.86
2023-04-20T10:56:48.428Z,9.82
2023-04-20T10:59:23.668Z,9.81
2023-04-20T11:01:52.276Z,9.82
2023-04-20T11:04:33.169Z,9.85
2023-04-20T11:07:07.122Z,9.84
2023-04-20T11:09:35.791Z,9.82
2023-04-20T11:12:07.850Z,9.81
2023-04-20T11:14:38.561Z,9.83
2023-04-20T11:17:06.905Z,9.79
2023-04-20T11:19:36.299Z,9.73
2023-04-20T11:22:05.470Z,9.73
2023-04-20T11:24:36.291Z,9.74
2023-04-20T11:27:04.990Z,9.74
2023-04-20T11:29:34.943Z,9.72
2023-04-20T11:32:07.339Z,9.69
2023-04-20T11:34:37.083Z,9.67
2023-04-20T11:37:06.670Z,9.65
2023-04-20T11:39:36.683Z,9.64
2023-04-20T11:42:05.223Z,9.63
2023-04-20T11:44:34.503Z,9.67
2023-04-20T11:47:03.923Z,9.72
2023-04-20T11:49:32.836Z,9.77
2023-04-20T11:52:01.260Z,9.79
2023-04-20T11:54:32.411Z,9.82
2023-04-20T11:57:00.857Z,9.86
2023-04-20T11:59:29.155Z,9.85
2023-04-20T12:01:57.340Z,9.84
2023-04-20T12:04:25.988Z,9.85
2023-04-20T12:06:54.399Z,9.84
2023-04-20T12:09:22.758Z,9.85
2023-04-20T12:11:50.865Z,9.86
2023-04-20T12:14:19.011Z,9.83
2023-04-20T12:16:47.073Z,9.81
2023-04-20T12:19:16.248Z,9.82
2023-04-20T12:21:44.610Z,9.86
2023-04-20T12:24:12.941Z,9.88
2023-04-20T12:26:41.265Z,9.87
2023-04-20T12:29:09.338Z,9.89
2023-04-20T12:31:37.603Z,9.89
2023-04-20T12:34:06.679Z,9.83
2023-04-20T12:36:35.268Z,9.76
2023-04-20T12:39:04.198Z,9.68
2023-04-20T12:41:33.382Z,9.60
2023-04-20T12:44:04.328Z,9.52
2023-04-20T12:46:34.508Z,9.39
2023-04-20T12:49:03.235Z,9.26
2023-04-20T12:51:32.394Z,9.10
2023-04-20T12:54:00.951Z,8.95
2023-04-20T12:56:29.198Z,8.86
2023-04-20T12:58:57.815Z,8.81
2023-04-20T13:01:26.715Z,8.84
2023-04-20T13:03:56.279Z,8.89
2023-04-20T13:06:24.586Z,8.94
2023-04-20T13:08:52.873Z,8.99
2023-04-20T13:11:20.958Z,9.02
2023-04-20T13:13:49.087Z,9.08
2023-04-20T13:16:17.255Z,9.15
2023-04-20T13:18:45.469Z,9.20
2023-04-20T13:21:13.733Z,9.27
2023-04-20T13:23:42.005Z,9.33
2023-04-20T13:26:10.282Z,9.36
2023-04-20T13:28:38.967Z,9.35
2023-04-20T13:31:07.349Z,9.35
2023-04-20T13:33:35.984Z,9.35
2023-04-20T13:36:04.564Z,9.34
2023-04-20T13:38:33.261Z,9.33
2023-04-20T13:41:01.476Z,9.35
2023-04-20T13:43:31.051Z,9.38
2023-04-20T13:45:59.285Z,9.42
2023-04-20T13:48:27.599Z,9.44
2023-04-20T13:50:56.628Z,9.45
2023-04-20T13:53:24.777Z,9.50
2023-04-20T13:55:53.100Z,9.54
2023-04-20T13:58:21.483Z,9.59
2023-04-20T14:00:49.640Z,9.64
2023-04-20T14:03:20.317Z,9.68
2023-04-20T14:05:51.067Z,9.72
2023-04-20T14:08:20.927Z,9.75
2023-04-20T14:10:49.097Z,9.80
2023-04-20T14:13:17.575Z,9.83
2023-04-20T14:15:45.786Z,9.86
2023-04-20T14:18:14.324Z,9.85
2023-04-20T14:20:42.707Z,9.82
2023-04-20T14:23:10.799Z,9.75
2023-04-20T14:25:38.930Z,9.72
2023-04-20T14:28:07.097Z,9.71
2023-04-20T14:30:35.943Z,9.70
2023-04-20T14:33:05.418Z,9.71
2023-04-20T14:35:34.815Z,9.73
2023-04-20T14:38:03.093Z,9.75
2023-04-20T14:40:32.394Z,9.76
2023-04-20T14:43:00.883Z,9.76
2023-04-20T14:45:29.254Z,9.77
2023-04-20T14:47:57.393Z,9.77
2023-04-20T14:50:28.985Z,9.74
2023-04-20T14:52:57.254Z,9.72
2023-04-20T14:55:26.301Z,9.72
2023-04-20T14:57:55.956Z,9.72
2023-04-20T15:00:25.345Z,9.71
2023-04-20T15:02:56.375Z,9.70
2023-04-20T15:05:26.037Z,9.69
2023-04-20T15:07:54.531Z,9.68
2023-04-20T15:10:22.763Z,9.65
2023-04-20T15:12:51.249Z,9.61
2023-04-20T15:15:19.400Z,9.55
2023-04-20T15:17:47.738Z,9.50
2023-04-20T15:20:15.971Z,9.45
2023-04-20T15:22:44.471Z,9.43
2023-04-20T15:25:12.736Z,9.43
2023-04-20T15:27:41.213Z,9.38
2023-04-20T15:30:09.991Z,9.30
2023-04-20T15:32:38.394Z,9.22
2023-04-20T15:35:06.804Z,9.15
2023-04-20T15:37:35.027Z,9.11
2023-04-20T15:40:03.314Z,9.09
2023-04-20T15:42:32.002Z,9.08
2023-04-20T15:45:00.177Z,9.02
2023-04-20T15:47:28.346Z,8.89
2023-04-20T15:50:01.622Z,8.75
2023-04-20T15:52:31.236Z,8.63
2023-04-20T15:54:59.512Z,8.49
2023-04-20T15:57:29.324Z,8.34
2023-04-20T15:59:58.014Z,8.22
2023-04-20T16:02:26.334Z,8.18
2023-04-20T16:04:54.924Z,8.20
2023-04-20T16:07:23.456Z,8.23
2023-04-20T16:09:51.835Z,8.29
2023-04-20T16:12:20.020Z,8.32
2023-04-20T16:14:48.797Z,8.38
2023-04-20T16:17:17.127Z,8.45
2023-04-20T16:19:45.357Z,8.48
2023-04-20T16:22:14.458Z,8.49
2023-04-20T16:24:42.615Z,8.48
2023-04-20T16:27:10.909Z,8.48
2023-04-20T16:29:39.175Z,8.46
2023-04-20T16:32:07.352Z,8.39
2023-04-20T16:34:35.827Z,8.35
2023-04-20T16:37:04.083Z,8.34
2023-04-20T16:39:32.793Z,8.34
2023-04-20T16:42:01.573Z,8.35
2023-04-20T16:44:29.825Z,8.36
2023-04-20T16:46:58.258Z,8.34
2023-04-20T16:49:27.294Z,8.30
2023-04-20T16:51:55.601Z,8.24
2023-04-20T16:54:23.779Z,8.19
2023-04-20T16:56:51.948Z,8.15
2023-04-20T16:59:21.048Z,8.14
2023-04-20T17:01:49.457Z,8.14
2023-04-20T17:04:18.540Z,8.18
2023-04-20T17:06:47.224Z,8.23
2023-04-20T17:09:15.398Z,8.26
2023-04-20T17:11:43.653Z,8.27
2023-04-20T17:14:11.864Z,8.28
2023-04-20T17:16:40.031Z,8.29
2023-04-20T17:19:08.274Z,8.30
2023-04-20T17:21:36.856Z,8.31
2023-04-20T17:24:05.320Z,8.35
2023-04-20T17:26:34.329Z,8.36
2023-04-20T17:29:02.405Z,8.34
2023-04-20T17:31:33.752Z,8.33
2023-04-20T17:34:01.974Z,8.31
2023-04-20T17:36:30.556Z,8.30
2023-04-20T17:38:58.837Z,8.30
2023-04-20T17:41:27.267Z,8.27
2023-04-20T17:43:55.444Z,8.25
2023-04-20T17:46:23.905Z,8.25
2023-04-20T17:48:52.320Z,8.28
2023-04-20T17:51:20.888Z,8.30
2023-04-20T17:53:48.948Z,8.31
2023-04-20T17:56:17.251Z,8.32
2023-04-20T17:58:46.429Z,8.33
2023-04-20T18:01:14.773Z,8.37
2023-04-20T18:03:42.983Z,8.39
2023-04-20T18:06:11.358Z,8.39
2023-04-20T18:08:39.787Z,8.41
2023-04-20T18:11:07.896Z,8.39
2023-04-20T18:13:36.118Z,8.36
2023-04-20T18:16:07.355Z,8.36
2023-04-20T18:18:36.042Z,8.36
2023-04-20T18:21:04.528Z,8.34
2023-04-20T18:23:32.989Z,8.32
2023-04-20T18:26:01.278Z,8.35
2023-04-20T18:28:29.599Z,8.37
2023-04-20T18:30:59.028Z,8.34
2023-04-20T18:33:27.519Z,8.32
2023-04-20T18:35:55.689Z,8.33
2023-04-20T18:38:23.754Z,8.31
2023-04-20T18:40:52.137Z,8.30
2023-04-20T18:43:20.414Z,8.29
2023-04-20T18:45:48.710Z,8.24
2023-04-20T18:48:17.507Z,8.25
2023-04-20T18:50:47.430Z,8.24
2023-04-20T18:53:16.914Z,8.25
2023-04-20T18:55:45.820Z,8.27
2023-04-20T18:58:13.961Z,8.26
2023-04-20T19:00:42.067Z,8.22
2023-04-20T19:03:10.880Z,8.19
2023-04-20T19:05:39.262Z,8.18
2023-04-20T19:08:07.508Z,8.20
2023-04-20T19:10:35.959Z,8.21
2023-04-20T19:13:04.239Z,8.20
2023-04-20T19:15:32.750Z,8.21
2023-04-20T19:18:00.878Z,8.19
2023-04-20T19:20:29.582Z,8.17
2023-04-20T19:22:57.859Z,8.17
2023-04-20T19:25:26.110Z,8.20
2023-04-20T19:27:54.182Z,8.22
2023-04-20T19:30:22.689Z,8.23
2023-04-20T19:32:50.790Z,8.23
2023-04-20T19:35:18.969Z,8.22
2023-04-20T19:37:47.200Z,8.23
2023-04-20T19:40:16.399Z,8.25
2023-04-20T19:42:44.990Z,8.24
2023-04-20T19:45:13.152Z,8.22
2023-04-20T19:47:41.759Z,8.18
2023-04-20T19:50:11.219Z,8.13
2023-04-20T19:52:39.746Z,8.11
2023-04-20T19:55:08.471Z,8.13
2023-04-20T19:57:36.723Z,8.17
2023-04-20T20:00:05.895Z,8.19
2023-04-20T20:02:41.731Z,8.20
2023-04-20T20:05:10.135Z,8.21
2023-04-20T20:07:38.618Z,8.21
2023-04-20T20:10:07.277Z,8.19
2023-04-20T20:12:35.574Z,8.19
2023-04-20T20:15:04.969Z,8.16
2023-04-20T20:17:33.274Z,8.13
2023-04-20T20:20:02.253Z,8.10
2023-04-20T20:22:30.719Z,8.07
2023-04-20T20:24:58.981Z,8.05
2023-04-20T20:27:30.248Z,8.01
2023-04-20T20:29:58.314Z,7.97
2023-04-20T20:32:26.417Z,7.97
2023-04-20T20:34:54.846Z,7.97
2023-04-20T20:37:24.472Z,8.00
2023-04-20T20:39:53.280Z,8.00
2023-04-20T20:42:21.620Z,8.02
2023-04-20T20:44:49.869Z,8.05
2023-04-20T20:47:18.152Z,8.07
2023-04-20T20:49:46.558Z,8.10
2023-04-20T20:52:14.621Z,8.13
2023-04-20T20:54:42.952Z,8.13
2023-04-20T20:57:11.110Z,8.15
2023-04-20T20:59:39.864Z,8.13
2023-04-20T21:02:08.161Z,8.11
2023-04-20T21:04:37.332Z,8.11
2023-04-20T21:07:06.028Z,8.12
2023-04-20T21:09:34.518Z,8.11
2023-04-20T21:12:04.827Z,8.12
2023-04-20T21:14:34.132Z,8.11
2023-04-20T21:17:02.564Z,8.11
2023-04-20T21:19:30.994Z,8.14
2023-04-20T21:21:59.355Z,8.15
2023-04-20T21:24:27.852Z,8.13
2023-04-20T21:26:56.757Z,8.14
2023-04-20T21:29:24.836Z,8.13
2023-04-20T21:31:53.087Z,8.09
2023-04-20T21:34:21.678Z,8.06
2023-04-20T21:36:49.840Z,8.04
2023-04-20T21:39:18.496Z,8.02
2023-04-20T21:41:47.002Z,8.03
2023-04-20T21:44:15.190Z,8.04
2023-04-20T21:46:43.636Z,8.04
2023-04-20T21:49:11.873Z,8.05
2023-04-20T21:51:40.223Z,8.04
2023-04-20T21:54:08.391Z,8.04
2023-04-20T21:56:36.870Z,8.05
2023-04-20T21:59:05.375Z,8.04
2023-04-20T22:01:34.077Z,8.00
2023-04-20T22:04:02.627Z,8.00
2023-04-20T22:06:32.715Z,8.01
2023-04-20T22:09:00.947Z,7.99
2023-04-20T22:11:29.766Z,8.00
2023-04-20T22:13:57.879Z,8.01
2023-04-20T22:16:26.112Z,8.01
2023-04-20T22:18:54.526Z,8.00
2023-04-20T22:21:22.699Z,8.00
2023-04-20T22:23:51.082Z,8.02
2023-04-20T22:26:19.281Z,8.04
2023-04-20T22:28:47.525Z,8.04
2023-04-20T22:31:16.398Z,8.05
2023-04-20T22:33:44.672Z,8.07
2023-04-20T22:36:13.111Z,8.07
2023-04-20T22:38:41.393Z,8.06
2023-04-20T22:41:09.834Z,8.07
2023-04-20T22:43:38.310Z,8.10
2023-04-20T22:46:06.488Z,8.13
2023-04-20T22:48:35.104Z,8.13
2023-04-20T22:51:03.656Z,8.12
2023-04-20T22:53:31.969Z,8.12
2023-04-20T22:56:07.461Z,8.11
2023-04-20T22:58:36.007Z,8.13
2023-04-20T23:01:04.302Z,8.15
2023-04-20T23:03:32.883Z,8.15
2023-04-20T23:06:01.180Z,8.13
2023-04-20T23:08:29.647Z,8.12
2023-04-20T23:10:57.771Z,8.12
2023-04-20T23:13:26.506Z,8.14
2023-04-20T23:15:54.730Z,8.15
